Eizo Maru — JD2944 — position and weather

sailwx.info

Track history (hours):
 
Tides and Currents Weather Stations Pressure Air Temp Water Temp Dewpoint Dewpoint Depression Visibility Wind Speed Wind Dir Waves Ship Positions

Eizo Maru

Last reported at 2016-Jul-28 18:31 UTC. Time now 2016-Jul-30 07:19 UTC.
Position N 36°52' E 141°02'.

Length 80 m; draft 4.8 m.

Type: Tanker. MMSI: 431000976.

Date/timePositionNaut miles runAvg speedWind from/ knotsBaromVisibWave heightAir tempDewpointWater temp
2016-Jul-28 18:31N 36°52' E 141°02'1313.1
2016-Jul-28 17:33N 36°39' E 141°01'1313.3
2016-Jul-28 16:33N 36°26' E 141°00'1313.2
2016-Jul-28 15:33N 36°13' E 140°59'1413.5
2016-Jul-28 14:33N 35°59' E 140°58'1513.7
2016-Jul-28 13:30N 35°45' E 140°56'1813.3
2016-Jul-28 12:09N 35°30' E 140°44'1413.4
2016-Jul-28 11:06N 35°19' E 140°34'2513.5
2016-Jul-28 09:14N 35°00' E 140°12'26311.5
2016-Jul-27 10:26N 34°10' E 134°59'1213.4
2016-Jul-27 09:30N 34°22' E 135°01'1212.9
2016-Jul-27 08:33N 34°29' E 135°14'6 4.0
2016-Jul-27 07:04N 34°32' E 135°20'5 9.2
2016-Jul-27 06:33N 34°33' E 135°26'1 0.1
2016-Jul-27 02:31N 34°33' E 135°25'4 3.7
2016-Jul-27 01:23N 34°32' E 135°20'0 0.1
2016-Jul-27 00:29N 34°32' E 135°20'1011.2
2016-Jul-26 23:33N 34°26' E 135°10'1412.0
2016-Jul-26 22:23N 34°15' E 134°59'  
2016-Jul-23 04:26N 34°15' E 134°59'1312.6
2016-Jul-23 03:26N 34°26' E 135°07'1213.4
2016-Jul-23 02:33N 34°32' E 135°19'6 5.7
2016-Jul-23 01:32N 34°33' E 135°26'0 0.1
2016-Jul-22 22:27N 34°33' E 135°26'5 5.2
2016-Jul-22 21:31N 34°32' E 135°20'0 0.0
2016-Jul-22 19:13N 34°32' E 135°20'0 0.0
2016-Jul-22 18:31N 34°32' E 135°20'0 0.0
2016-Jul-22 17:31N 34°32' E 135°20'0 0.0
2016-Jul-22 16:31N 34°32' E 135°20'0 0.0
2016-Jul-22 15:31N 34°32' E 135°20'0 0.1
2016-Jul-22 14:31N 34°32' E 135°20'0 0.0
2016-Jul-22 13:31N 34°32' E 135°20'0 0.0
2016-Jul-22 12:19N 34°32' E 135°20'0 0.0
2016-Jul-22 11:25N 34°32' E 135°20'0 0.0
2016-Jul-22 09:31N 34°32' E 135°20'0 0.1
2016-Jul-22 08:33N 34°32' E 135°20'1413.6
2016-Jul-22 07:33N 34°35' E 135°04'  
Track history (hours):
 
Tides and Currents Weather Stations Pressure Air Temp Water Temp Dewpoint Dewpoint Depression Visibility Wind Speed Wind Dir Waves Ship Positions

Eizo Maru

Last reported at 2016-Jul-28 18:31 UTC. Time now 2016-Jul-30 07:19 UTC.
Position N 36°52' E 141°02'.

Length 80 m; draft 4.8 m.

Type: Tanker. MMSI: 431000976.

Date/timePositionNaut miles runAvg speedWind from/ knotsBaromVisibWave heightAir tempDewpointWater temp
2016-Jul-28 18:31N 36°52' E 141°02'1313.1
2016-Jul-28 17:33N 36°39' E 141°01'1313.3
2016-Jul-28 16:33N 36°26' E 141°00'1313.2
2016-Jul-28 15:33N 36°13' E 140°59'1413.5
2016-Jul-28 14:33N 35°59' E 140°58'1513.7
2016-Jul-28 13:30N 35°45' E 140°56'1813.3
2016-Jul-28 12:09N 35°30' E 140°44'1413.4
2016-Jul-28 11:06N 35°19' E 140°34'2513.5
2016-Jul-28 09:14N 35°00' E 140°12'26311.5
2016-Jul-27 10:26N 34°10' E 134°59'1213.4
2016-Jul-27 09:30N 34°22' E 135°01'1212.9
2016-Jul-27 08:33N 34°29' E 135°14'6 4.0
2016-Jul-27 07:04N 34°32' E 135°20'5 9.2
2016-Jul-27 06:33N 34°33' E 135°26'1 0.1
2016-Jul-27 02:31N 34°33' E 135°25'4 3.7
2016-Jul-27 01:23N 34°32' E 135°20'0 0.1
2016-Jul-27 00:29N 34°32' E 135°20'1011.2
2016-Jul-26 23:33N 34°26' E 135°10'1412.0
2016-Jul-26 22:23N 34°15' E 134°59'  
2016-Jul-23 04:26N 34°15' E 134°59'1312.6
2016-Jul-23 03:26N 34°26' E 135°07'1213.4
2016-Jul-23 02:33N 34°32' E 135°19'6 5.7
2016-Jul-23 01:32N 34°33' E 135°26'0 0.1
2016-Jul-22 22:27N 34°33' E 135°26'5 5.2
2016-Jul-22 21:31N 34°32' E 135°20'0 0.0
2016-Jul-22 19:13N 34°32' E 135°20'0 0.0
2016-Jul-22 18:31N 34°32' E 135°20'0 0.0
2016-Jul-22 17:31N 34°32' E 135°20'0 0.0
2016-Jul-22 16:31N 34°32' E 135°20'0 0.0
2016-Jul-22 15:31N 34°32' E 135°20'0 0.1
2016-Jul-22 14:31N 34°32' E 135°20'0 0.0
2016-Jul-22 13:31N 34°32' E 135°20'0 0.0
2016-Jul-22 12:19N 34°32' E 135°20'0 0.0
2016-Jul-22 11:25N 34°32' E 135°20'0 0.0
2016-Jul-22 09:31N 34°32' E 135°20'0 0.1
2016-Jul-22 08:33N 34°32' E 135°20'1413.6
2016-Jul-22 07:33N 34°35' E 135°04'  

Dump ship's entire track history